Latest Weather Observations for Dwellingup

IDW60801

Issued at 2:05 pm WST Friday 31 October 2014 (issued every 30 minutes, with the page automatically refreshed every 10 minutes)

About weather observations | Map of weather stations | Latest weather observations for WA | Other Formats
Station Details ID: 009538 Name: DWELLINGUP Lat: -32.71 Lon: 116.06 Height: 267.0 m
Data from the previous 72 hours. | See also: Recent months at Dwellingup
Date/Time
WST
Temp
°C
App
Temp
°C
Dew
Point
Rel
Hum
%
Delta-T
°C
Wind Press
QNH
hPa
Press
MSL
hPa
Rain
since 9 am
mm
Dir
 
Spd
km/h
Gust
km/h
Spd
kts
Gust
kts
31/02:00pm 21.0 16.9 4.1 33 8.3 SE 15 22 8 12 1016.7 1016.4 0.0
31/01:30pm 20.8 18.3 3.5 32 8.3 ENE 6 20 3 11 1017.0 1016.8 0.0
31/01:00pm 20.7 17.4 4.3 34 8.0 SSE 11 20 6 11 1017.1 1016.9 0.0
31/12:30pm 20.1 16.6 5.4 38 7.3 SSE 13 26 7 14 1017.3 1017.1 0.0
31/12:00pm 19.2 15.8 4.2 37 7.2 SE 11 24 6 13 1017.3 1017.1 0.0
31/11:30am 19.0 15.1 3.6 36 7.4 SE 13 26 7 14 1017.5 1017.3 0.0
31/11:00am 18.2 14.5 4.7 41 6.5 SSE 13 22 7 12 1017.7 1017.5 0.0
31/10:30am 17.9 14.7 7.0 49 5.5 SE 13 20 7 11 1017.8 1017.6 0.0
31/10:00am 16.1 11.5 5.4 49 5.2 ESE 19 32 10 17 1017.9 1017.7 0.0
31/09:30am 15.3 11.3 4.9 50 5.0 ESE 15 26 8 14 1017.9 1017.7 0.0
31/09:00am 14.9 11.2 6.2 56 4.2 SE 15 28 8 15 1017.9 1017.7 1.6
31/08:30am 14.0 9.1 4.9 54 4.3 SSE 20 33 11 18 1017.7 1017.5 1.6
31/08:00am 13.7 9.1 6.6 62 3.5 SSE 20 37 11 20 1017.4 1017.2 1.6
31/07:47am 13.3 7.3 6.9 65 3.1 S 28 46 15 25 1017.3 1017.1 1.6
31/07:46am 13.1 7.1 6.9 66 3.0 S 28 39 15 21 1017.3 1017.1 1.6
31/07:30am 12.8 9.6 7.0 68 2.8 SE 13 19 7 10 1017.3 1017.1 1.6
31/07:00am 12.1 9.0 7.4 73 2.3 SSE 13 22 7 12 1017.1 1016.9 1.6
31/06:30am 11.2 8.3 8.2 82 1.5 SSE 13 20 7 11 1016.9 1016.6 1.6
31/06:00am 10.9 7.8 8.7 86 1.1 S 15 26 8 14 1016.7 1016.4 1.6
31/05:30am 11.2 8.8 8.8 85 1.2 S 11 17 6 9 1016.2 1015.9 1.6
31/05:00am 11.8 8.5 9.7 87 1.1 S 17 26 9 14 1015.7 1015.4 1.6
31/04:30am 12.1 8.5 9.8 86 1.2 S 19 33 10 18 1015.1 1014.9 1.6
31/04:00am 12.9 9.4 11.0 88 1.0 S 20 32 11 17 1014.5 1014.3 1.6
31/03:30am 13.2 10.9 11.6 90 0.9 SSW 15 20 8 11 1014.1 1013.9 1.6
31/03:00am 13.4 10.8 12.0 91 0.8 SSW 17 26 9 14 1013.9 1013.7 1.6
31/02:30am 13.5 10.9 11.9 90 0.9 SSW 17 30 9 16 1013.8 1013.6 1.6
31/02:00am 13.9 12.2 11.2 84 1.5 WNW 11 19 6 10 1013.4 1013.1 0.0
31/01:30am 13.8 11.7 11.1 84 1.4 W 13 22 7 12 1013.6 1013.3 0.0
31/01:00am 13.3 11.5 11.0 86 1.2 WNW 11 17 6 9 1013.7 1013.4 0.0
31/12:30am 13.1 11.8 11.2 88 1.0 W 9 15 5 8 1014.1 1013.9 0.0
31/12:00am 12.7 11.2 10.6 87 1.1 W 9 15 5 8 1014.5 1014.3 0.0
 
Date/Time
WST
Temp
°C
App
Temp
°C
Dew
Point
Rel
Hum
%
Delta-T
°C
Wind Press
QNH
hPa
Press
MSL
hPa
Rain
since 9 am
mm
Dir
 
Spd
km/h
Gust
km/h
Spd
kts
Gust
kts
30/11:30pm 13.0 11.5 10.4 84 1.4 W 9 13 5 7 1014.6 1014.4 0.0
30/11:00pm 13.5 11.6 10.5 82 1.6 W 11 19 6 10 1014.8 1014.6 0.0
30/10:30pm 13.7 11.4 10.3 80 1.8 WNW 13 19 7 10 1014.9 1014.7 0.0
30/10:00pm 13.8 11.4 10.2 79 1.9 WNW 13 26 7 14 1015.1 1014.9 0.0
30/09:30pm 14.0 11.6 10.2 78 2.0 W 13 22 7 12 1015.2 1015.0 0.0
30/09:00pm 14.4 12.3 11.0 80 1.8 W 13 24 7 13 1015.3 1015.1 0.0
30/08:30pm 14.4 12.3 11.0 80 1.8 WNW 13 17 7 9 1015.2 1015.0 0.0
30/08:00pm 14.4 12.1 10.6 78 2.0 W 13 28 7 15 1015.1 1014.9 0.0
30/07:30pm 14.7 12.1 9.3 70 2.8 W 13 22 7 12 1014.9 1014.7 0.0
30/07:00pm 14.7 12.1 9.3 70 2.8 W 13 20 7 11 1014.6 1014.4 0.0
30/06:30pm 14.8 11.9 9.6 71 2.7 W 15 26 8 14 1014.4 1014.2 0.0
30/06:00pm 15.2 11.8 9.3 68 3.1 W 17 30 9 16 1014.3 1014.1 0.0
30/05:30pm 15.7 11.9 8.9 64 3.5 W 19 32 10 17 1014.0 1013.8 0.0
30/05:00pm 15.8 13.0 9.9 68 3.1 W 15 28 8 15 1013.9 1013.7 0.0
30/04:30pm 15.7 12.0 9.6 67 3.2 W 19 33 10 18 1013.9 1013.7 0.0
30/04:00pm 16.5 12.5 8.2 58 4.3 W 19 39 10 21 1013.9 1013.7 0.0
30/03:30pm 16.7 12.8 9.4 62 3.8 W 20 35 11 19 1013.8 1013.6 0.0
30/03:00pm 17.8 13.7 8.6 55 4.8 W 20 37 11 20 1013.6 1013.3 0.0
30/02:30pm 18.5 15.1 9.3 55 4.9 W 17 33 9 18 1013.3 1013.0 0.0
30/02:00pm 18.6 14.9 9.4 55 4.9 W 19 33 10 18 1013.6 1013.3 0.0
30/01:30pm 18.4 15.0 9.2 55 4.9 W 17 33 9 18 1013.6 1013.3 0.0
30/01:00pm 18.6 15.7 9.7 56 4.8 W 15 28 8 15 1013.7 1013.4 0.0
30/12:30pm 18.1 15.3 10.0 59 4.4 W 15 24 8 13 1013.9 1013.7 0.0
30/12:00pm 18.0 16.0 11.6 66 3.5 W 13 22 7 12 1014.0 1013.8 0.0
30/11:30am 16.5 14.2 11.6 73 2.7 WSW 15 30 8 16 1014.2 1014.0 0.0
30/11:00am 16.3 14.7 12.7 79 2.0 WSW 13 26 7 14 1014.2 1014.0 0.0
30/10:30am 16.0 14.7 12.4 79 2.0 W 11 19 6 10 1014.2 1014.0 0.0
30/10:00am 15.8 14.0 12.0 78 2.1 W 13 24 7 13 1014.3 1014.1 0.0
30/09:30am 16.3 15.4 12.5 78 2.1 W 9 15 5 8 1014.3 1014.1 0.0
30/09:00am 15.3 13.4 11.9 80 1.9 WSW 13 19 7 10 1014.5 1014.3 0.0
30/08:30am 14.7 12.9 12.0 84 1.5 WSW 13 17 7 9 1014.5 1014.3 0.0
30/08:00am 14.8 13.7 12.1 84 1.5 W 9 15 5 8 1014.4 1014.2 0.0
30/07:30am 14.6 14.2 12.3 86 1.3 W 6 9 3 5 1014.1 1013.9 0.0
30/07:00am 14.2 14.6 12.4 89 1.0 S 2 9 1 5 1014.0 1013.8 0.0
30/06:30am 13.0 11.8 11.6 91 0.8 SE 9 13 5 7 1014.0 1013.8 0.0
30/06:00am 12.9 11.3 11.6 92 0.7 SE 11 17 6 9 1014.3 1014.1 0.0
30/05:30am 12.8 10.8 11.5 92 0.7 SSE 13 17 7 9 1014.1 1013.9 0.0
30/05:00am 12.8 10.4 11.5 92 0.7 SSE 15 22 8 12 1014.0 1013.8 0.0
30/04:30am 12.4 9.9 11.1 92 0.7 SSE 15 19 8 10 1013.7 1013.4 0.0
30/04:00am 12.3 9.8 10.9 91 0.7 SSE 15 19 8 10 1013.4 1013.1 0.0
30/03:30am 12.6 10.5 11.2 91 0.7 SSE 13 17 7 9 1013.5 1013.2 0.0
30/03:00am 13.0 10.7 11.6 91 0.8 SSE 15 19 8 10 1013.6 1013.3 0.0
30/02:30am 13.1 11.2 11.8 92 0.7 SSE 13 19 7 10 1013.5 1013.2 0.0
30/02:00am 12.8 10.8 11.5 92 0.7 S 13 17 7 9 1013.5 1013.2 0.0
30/01:30am 13.1 11.9 11.7 91 0.8 S 9 11 5 6 1013.4 1013.1 0.0
30/01:00am 13.6 13.1 12.2 91 0.8 SSW 6 11 3 6 1013.5 1013.2 0.0
30/12:30am 14.3 13.4 12.7 90 0.9 SW 9 11 5 6 1013.6 1013.3 0.0
30/12:00am 14.6 13.8 12.8 89 1.0 SW 9 11 5 6 1013.9 1013.7 0.0
 
Date/Time
WST
Temp
°C
App
Temp
°C
Dew
Point
Rel
Hum
%
Delta-T
°C
Wind Press
QNH
hPa
Press
MSL
hPa
Rain
since 9 am
mm
Dir
 
Spd
km/h
Gust
km/h
Spd
kts
Gust
kts
29/11:30pm 15.0 14.2 12.9 87 1.2 SSW 9 11 5 6 1013.9 1013.7 0.0
29/11:00pm 15.5 15.2 13.3 87 1.2 SSW 7 9 4 5 1014.2 1014.0 0.0
29/10:30pm 15.4 13.9 13.2 87 1.2 SSW 13 19 7 10 1014.2 1014.0 0.0
29/10:00pm 16.0 14.3 13.7 86 1.3 SSW 15 22 8 12 1014.1 1013.9 0.0
29/09:30pm 16.4 15.1 13.7 84 1.5 S 13 19 7 10 1014.2 1014.0 0.0
29/09:00pm 17.1 15.1 14.0 82 1.8 SSW 17 20 9 11 1014.3 1014.1 0.0
29/08:30pm 17.7 16.6 14.2 80 2.0 SW 13 15 7 8 1014.2 1014.0 0.0
29/08:00pm 18.5 17.8 14.2 76 2.5 WSW 11 13 6 7 1013.9 1013.7 0.0
29/07:30pm 20.2 20.1 13.9 67 3.7 S 7 11 4 6 1013.4 1013.1 0.0
29/07:00pm 21.2 19.9 13.6 62 4.4 SSW 13 19 7 10 1013.1 1012.8 0.0
29/06:30pm 22.1 20.4 13.7 59 4.9 SSW 15 19 8 10 1013.1 1012.8 0.0
29/06:00pm 22.7 21.2 14.3 59 5.0 SSW 15 24 8 13 1012.9 1012.6 0.0
29/05:30pm 23.4 22.1 14.7 58 5.2 SW 15 24 8 13 1013.0 1012.7 0.0
29/05:00pm 25.1 24.9 14.6 52 6.3 WSW 9 15 5 8 1013.0 1012.7 0.0
29/04:30pm 25.5 24.7 15.2 53 6.3 WSW 13 22 7 12 1013.1 1012.8 0.0
29/04:00pm 25.0 23.6 13.5 48 6.8 WSW 13 20 7 11 1012.9 1012.6 0.0
29/03:30pm 27.3 23.8 10.1 34 9.7 WSW 19 30 10 16 1012.7 1012.4 0.0
29/03:00pm 27.4 26.0 8.8 31 10.3 SSE 6 13 3 7 1012.9 1012.6 0.0
29/02:30pm 27.8 26.2 10.1 33 10.0 SSE 9 17 5 9 1013.1 1012.8 0.0
29/02:00pm 27.3 25.0 10.5 35 9.6 SE 13 24 7 13 1013.2 1012.9 0.0
29/01:30pm 26.3 23.8 11.2 38 8.7 SE 15 26 8 14 1013.3 1013.0 0.0
29/01:00pm 26.8 25.0 12.1 40 8.6 SE 13 24 7 13 1013.5 1013.2 0.0
29/12:30pm 25.9 24.7 12.7 44 7.7 ESE 11 19 6 10 1013.6 1013.3 0.0
29/12:00pm 24.8 23.6 12.7 47 7.1 SE 11 19 6 10 1014.1 1013.9 0.0
29/11:30am 24.3 22.4 12.9 49 6.7 S 15 24 8 13 1014.3 1014.1 0.0
29/11:00am 23.7 22.4 13.6 53 6.0 ESE 13 19 7 10 1014.6 1014.4 0.0
29/10:30am 22.8 21.6 12.7 53 5.8 SE 11 17 6 9 1014.8 1014.6 0.0
29/10:00am 21.9 20.3 12.7 56 5.3 SSE 13 22 7 12 1014.8 1014.6 0.0
29/09:30am 20.4 18.7 12.4 60 4.6 SSE 13 22 7 12 1014.9 1014.7 0.0
29/09:00am 19.8 17.8 12.6 63 4.1 SE 15 22 8 12 1015.0 1014.8 0.0
29/08:30am 18.4 16.2 12.2 67 3.5 SE 15 28 8 15 1014.9 1014.7 0.0
29/08:00am 17.0 14.6 11.5 70 3.0 SE 15 26 8 14 1014.6 1014.4 0.0
29/07:30am 15.7 12.5 11.3 75 2.4 ESE 19 28 10 15 1014.6 1014.4 0.0
29/07:00am 15.0 11.6 11.2 78 2.1 SE 20 33 11 18 1014.6 1014.4 0.0
29/06:30am 14.0 11.2 11.2 83 1.5 SE 17 26 9 14 1014.7 1014.5 0.0
29/06:00am 14.2 11.0 11.4 83 1.5 SE 19 28 10 15 1014.5 1014.3 0.0
29/05:30am 14.2 11.0 11.2 82 1.6 SE 19 30 10 16 1014.0 1013.8 0.0
29/05:00am 14.4 11.2 11.4 82 1.6 SE 19 32 10 17 1014.0 1013.8 0.0
29/04:30am 14.7 11.9 11.5 81 1.7 SE 17 24 9 13 1014.0 1013.8 0.0
29/04:00am 14.8 11.2 11.8 82 1.6 SSE 22 33 12 18 1013.6 1013.3 0.0
29/03:30am 15.1 11.9 11.9 81 1.8 SE 20 39 11 21 1013.8 1013.6 0.0
29/03:00am 15.6 12.0 12.0 79 2.0 SE 22 32 12 17 1013.6 1013.3 0.0
29/02:30am 15.9 12.3 11.9 77 2.2 SSE 22 37 12 20 1013.5 1013.2 0.0
29/02:00am 16.3 13.3 11.9 75 2.4 SE 19 26 10 14 1013.6 1013.3 0.0
29/01:30am 16.2 12.5 11.6 74 2.5 SE 22 35 12 19 1013.8 1013.6 0.0
29/01:00am 16.5 12.8 11.4 72 2.8 SE 22 32 12 17 1013.9 1013.7 0.0
29/12:30am 16.9 13.5 11.4 70 3.0 SE 20 30 11 16 1014.2 1014.0 0.0
29/12:00am 17.2 13.5 11.5 69 3.1 SE 22 33 12 18 1014.3 1014.1 0.0
 
Date/Time
WST
Temp
°C
App
Temp
°C
Dew
Point
Rel
Hum
%
Delta-T
°C
Wind Press
QNH
hPa
Press
MSL
hPa
Rain
since 9 am
mm
Dir
 
Spd
km/h
Gust
km/h
Spd
kts
Gust
kts
28/11:30pm 18.0 14.6 11.3 65 3.7 SSE 20 30 11 16 1014.3 1014.1 0.0
28/11:00pm 17.5 14.8 11.8 69 3.2 SE 17 26 9 14 1014.3 1014.1 0.0
28/10:30pm 17.9 15.9 12.6 71 3.0 SE 15 19 8 10 1014.3 1014.1 0.0
28/10:00pm 18.2 16.1 12.4 69 3.3 SE 15 20 8 11 1014.2 1014.0 0.0
28/09:30pm 18.3 15.7 13.2 72 2.9 SE 19 30 10 16 1014.5 1014.3 0.0
28/09:00pm 18.9 16.7 13.3 70 3.2 SE 17 20 9 11 1014.6 1014.4 0.0
28/08:30pm 19.3 17.2 13.7 70 3.2 S 17 26 9 14 1014.4 1014.2 0.0
28/08:00pm 19.0 17.1 14.1 73 2.9 S 17 26 9 14 1014.3 1014.1 0.0
28/07:30pm 19.4 17.9 14.2 72 3.0 S 15 20 8 11 1014.3 1014.1 0.0
28/07:00pm 20.5 19.4 14.4 68 3.6 SW 13 19 7 10 1014.3 1014.1 0.0
28/06:30pm 22.2 21.7 14.8 63 4.4 WSW 11 15 6 8 1014.1 1013.9 0.0
28/06:00pm 23.3 22.3 14.6 58 5.2 WSW 13 17 7 9 1014.0 1013.8 0.0
28/05:30pm 25.0 24.5 14.8 53 6.2 WSW 11 17 6 9 1014.1 1013.9 0.0
28/05:00pm 26.5 26.2 14.3 47 7.4 SW 9 13 5 7 1013.9 1013.7 0.0
28/04:30pm 26.8 25.9 11.3 38 8.9 SSW 7 11 4 6 1013.8 1013.6 0.0
28/04:00pm 26.8 26.1 11.3 38 8.9 SSW 6 9 3 5 1013.7 1013.4 0.0
28/03:30pm 26.9 25.8 10.6 36 9.3 SE 7 9 4 5 1013.8 1013.6 0.0
28/03:00pm 27.1 26.5 10.3 35 9.5 S 4 9 2 5 1014.2 1014.0 0.0
28/02:30pm 27.6 27.0 10.3 34 9.8 SSE 4 7 2 4 1014.5 1014.3 0.0

Other Formats:

Comma delimited format used in spreadsheet applications
http://www.bom.gov.au/fwo/IDW60801/IDW60801.94620.axf

JavaScript Object Notation format (JSON) in row-major order
http://www.bom.gov.au/fwo/IDW60801/IDW60801.94620.json